Latest Weather Observations for Lismore Airport

IDN60801

Issued at 10:33 pm EST Saturday 30 July 2016 (issued every 30 minutes, with the page automatically refreshed every 10 minutes)

About weather observations | Map of weather stations | Latest weather observations for NSW | Other Formats
Station Details ID: 058214 Name: LISMORE AIRPORT AWS Lat: -28.83 Lon: 153.26 Height: 9.21 m
Data from the previous 72 hours. | See also: Recent months at Lismore Airport
Date/Time
EST
Temp
°C
App
Temp
°C
Dew
Point
°C
Rel
Hum
%
Delta-T
°C
Wind Press
QNH
hPa
Press
MSL
hPa
Rain since
9am
mm
Dir  Spd
km/h
Gust
km/h
Spd
kts
Gust
kts
30/10:30pm 7.3 5.2 5.8 90 0.7 N 6 7 3 4 1021.3 1021.3 0.0
30/10:00pm 9.9 8.1 9.4 97 0.2 N 9 11 5 6 1021.2 1021.2 0.0
30/09:30pm 9.1 7.0 6.5 84 1.2 NNW 7 9 4 5 1021.0 1021.0 0.0
30/09:00pm 11.6 11.9 10.8 95 0.4 CALM 0 0 0 0 1020.7 1020.7 0.0
30/08:30pm 9.9 8.4 8.3 90 0.8 N 6 13 3 7 1020.6 1020.6 0.0
30/08:00pm 11.0 10.2 9.8 92 0.6 NNW 4 7 2 4 1020.7 1020.7 0.0
30/07:30pm 11.6 10.6 10.3 92 0.7 NNW 6 6 3 3 1020.6 1020.6 0.0
30/07:00pm 12.4 10.7 9.8 84 1.3 S 9 11 5 6 1020.3 1020.3 0.0
30/06:30pm 14.6 13.7 11.4 81 1.7 SSE 7 9 4 5 1020.0 1020.0 0.0
30/06:00pm 15.2 14.0 11.6 79 1.9 S 9 11 5 6 1019.7 1019.7 0.0
30/05:30pm 16.3 14.7 11.7 74 2.5 S 11 15 6 8 1019.5 1019.5 0.0
30/05:00pm 17.7 15.2 12.2 70 3.0 S 17 20 9 11 1019.2 1019.2 0.0
30/04:30pm 18.5 16.0 12.3 67 3.4 SSE 17 24 9 13 1019.1 1019.1 0.0
30/04:00pm 19.3 16.9 12.8 66 3.6 SSE 17 24 9 13 1018.9 1018.9 0.0
30/03:30pm 19.7 16.9 12.7 64 3.9 SSE 19 26 10 14 1018.7 1018.7 0.0
30/03:00pm 20.6 18.3 13.1 62 4.3 S 17 20 9 11 1018.6 1018.6 0.0
30/02:30pm 20.5 17.9 12.0 58 4.7 SSE 17 26 9 14 1018.8 1018.8 0.0
30/02:00pm 20.3 19.1 11.5 57 4.9 SSE 9 15 5 8 1018.9 1018.9 0.0
30/01:30pm 20.6 19.2 11.0 54 5.3 S 9 15 5 8 1019.0 1019.0 0.0
30/01:00pm 20.3 18.4 10.4 53 5.3 SW 11 19 6 10 1019.4 1019.4 0.0
30/12:30pm 19.7 18.4 10.1 54 5.2 WSW 7 20 4 11 1019.8 1019.8 0.0
30/12:00pm 19.0 16.8 9.5 54 5.0 SW 11 17 6 9 1020.3 1020.3 0.0
30/11:30am 18.5 16.2 9.0 54 5.0 SSW 11 19 6 10 1020.7 1020.7 0.0
30/11:00am 18.4 15.4 7.5 49 5.5 SW 13 17 7 9 1021.2 1021.2 0.0
30/10:30am 17.6 15.2 6.8 49 5.4 WSW 9 13 5 7 1021.5 1021.5 0.0
30/10:00am 16.0 15.6 8.2 60 3.9 CALM 0 0 0 0 1021.8 1021.8 0.0
30/09:30am 13.5 13.2 8.8 73 2.4 CALM 0 6 0 3 1022.0 1022.0 0.0
30/09:00am 11.1 9.4 8.5 84 1.3 NNE 7 11 4 6 1022.0 1022.0 0.0
30/08:30am 8.7 8.2 7.8 94 0.4 CALM 0 0 0 0 1021.7 1021.7 0.0
30/08:00am 6.6 4.6 6.3 98 0.1 N 6 9 3 5 1021.7 1021.7 0.0
30/07:56am 6.1 3.8 5.8 98 0.1 NNE 7 9 4 5 1021.7 1021.7 0.0
30/07:55am 6.0 3.7 5.7 98 0.1 NNE 7 9 4 5 1021.6 1021.6 0.0
30/07:34am 3.8 0.7 3.5 98 0.1 NNE 9 11 5 6 1021.4 1021.4 0.0
30/07:30am 3.7 0.6 3.4 98 0.1 NNE 9 11 5 6 1021.4 1021.4 0.0
30/07:04am 1.9 0.1 1.5 97 0.2 CALM 0 0 0 0 1021.1 1021.1 0.0
30/07:00am 1.3 -0.5 0.9 97 0.1 CALM 0 0 0 0 1021.0 1021.0 0.0
30/06:42am 0.8 -1.2 0.2 96 0.2 CALM 0 0 0 0 1020.9 1020.9 0.0
30/06:35am 0.7 -1.3 0.1 96 0.2 CALM 0 0 0 0 1020.9 1020.9 0.0
30/06:30am 1.0 -0.9 0.4 96 0.2 CALM 0 0 0 0 1020.8 1020.8 0.0
30/06:00am 1.8 0.0 1.4 97 0.2 CALM 0 0 0 0 1020.2 1020.2 0.0
30/05:48am 2.1 -0.7 1.8 98 0.1 NNE 6 7 3 4 1020.0 1020.0 0.0
30/05:39am 2.1 -0.9 1.8 98 0.1 NNE 7 9 4 5 1019.9 1019.9 0.0
30/05:33am 2.9 -0.4 2.6 98 0.1 N 9 13 5 7 1019.8 1019.8 0.0
30/05:30am 3.0 -0.6 2.7 98 0.1 N 11 13 6 7 1019.8 1019.8 0.0
30/05:00am 1.8 0.0 1.4 97 0.2 CALM 0 0 0 0 1019.6 1019.6 0.0
30/04:40am 1.8 0.0 1.2 96 0.2 CALM 0 0 0 0 1019.5 1019.5 0.0
30/04:30am 2.0 0.2 1.3 95 0.3 CALM 0 0 0 0 1019.4 1019.4 0.0
30/04:00am 2.9 1.3 2.3 96 0.2 CALM 0 0 0 0 1019.2 1019.2 0.0
30/03:49am 4.2 2.8 3.8 97 0.2 CALM 0 0 0 0 1019.2 1019.2 0.0
30/03:40am 3.9 2.5 3.5 97 0.2 CALM 0 0 0 0 1019.3 1019.3 0.0
30/03:30am 3.3 1.7 2.6 95 0.3 CALM 0 0 0 0 1019.3 1019.3 0.0
30/03:00am 5.0 1.7 4.4 96 0.3 N 11 11 6 6 1019.4 1019.4 0.0
30/02:30am 5.3 1.6 4.4 94 0.4 N 13 13 7 7 1019.5 1019.5 0.0
30/02:00am 6.1 2.5 5.2 94 0.4 N 13 13 7 7 1019.5 1019.5 0.0
30/01:30am 6.2 3.0 5.3 94 0.4 N 11 13 6 7 1019.6 1019.6 0.0
30/01:00am 6.4 3.3 5.4 93 0.4 N 11 13 6 7 1019.8 1019.8 0.0
30/12:30am 6.9 3.9 5.8 93 0.5 N 11 13 6 7 1019.8 1019.8 0.0
30/12:00am 8.0 4.4 6.9 93 0.5 N 15 17 8 9 1019.8 1019.8 0.0
 
Date/Time
EST
Temp
°C
App
Temp
°C
Dew
Point
°C
Rel
Hum
%
Delta-T
°C
Wind Press
QNH
hPa
Press
MSL
hPa
Rain since
9am
mm
Dir  Spd
km/h
Gust
km/h
Spd
kts
Gust
kts
29/11:30pm 7.4 4.0 6.0 91 0.6 N 13 17 7 9 1020.0 1020.0 0.0
29/11:00pm 7.8 4.9 6.4 91 0.6 NNE 11 13 6 7 1020.2 1020.2 0.0
29/10:30pm 8.5 5.7 7.1 91 0.7 N 11 15 6 8 1020.1 1020.1 0.0
29/10:00pm 8.9 6.3 7.8 93 0.5 N 11 17 6 9 1020.1 1020.1 0.0
29/09:30pm 8.5 4.9 6.8 89 0.8 N 15 17 8 9 1020.0 1020.0 0.0
29/09:00pm 9.6 5.1 7.0 84 1.2 NNW 20 20 11 11 1019.9 1019.9 0.0
29/08:30pm 11.0 6.8 8.1 82 1.4 N 20 20 11 11 1019.7 1019.7 0.0
29/08:00pm 11.3 7.7 8.3 82 1.5 N 17 19 9 10 1019.4 1019.4 0.0
29/07:30pm 11.3 7.7 8.3 82 1.5 N 17 19 9 10 1019.3 1019.3 0.0
29/07:00pm 12.2 9.0 8.3 77 1.9 N 15 17 8 9 1019.0 1019.0 0.0
29/06:30pm 13.2 10.0 8.3 72 2.4 N 15 15 8 8 1018.8 1018.8 0.0
29/06:00pm 13.5 11.0 6.4 62 3.4 NNE 9 13 5 7 1018.6 1018.6 0.0
29/05:30pm 18.1 14.8 8.1 52 5.1 NE 15 19 8 10 1018.3 1018.3 0.0
29/05:00pm 19.3 16.4 8.3 49 5.7 NE 13 19 7 10 1018.3 1018.3 0.0
29/04:30pm 20.7 17.5 8.4 45 6.4 ENE 15 22 8 12 1018.2 1018.2 0.0
29/04:00pm 22.7 20.3 5.2 32 8.7 NNE 7 9 4 5 1018.3 1018.3 0.0
29/03:30pm 23.4 21.4 6.2 33 8.8 NE 6 13 3 7 1018.5 1018.5 0.0
29/03:00pm 23.4 20.2 5.3 31 9.1 N 11 20 6 11 1018.6 1018.6 0.0
29/02:30pm 23.5 20.2 4.5 29 9.4 NNW 11 17 6 9 1018.8 1018.8 0.0
29/02:00pm 23.3 20.3 6.1 33 8.7 NW 11 17 6 9 1019.0 1019.0 0.0
29/01:30pm 22.9 20.0 4.9 31 8.9 NW 9 13 5 7 1019.3 1019.3 0.0
29/01:00pm 23.0 19.8 6.7 35 8.4 NNE 13 17 7 9 1019.9 1019.9 0.0
29/12:30pm 22.1 19.1 5.9 35 8.2 N 11 19 6 10 1020.5 1020.5 0.0
29/12:00pm 21.4 18.9 8.0 42 7.0 NNW 11 15 6 8 1021.2 1021.2 0.0
29/11:30am 21.0 18.1 6.5 39 7.3 NNW 11 17 6 9 1021.8 1021.8 0.0
29/11:00am 19.4 18.9 9.3 52 5.3 NNW 2 7 1 4 1022.5 1022.5 0.0
29/10:30am 17.8 17.1 11.4 66 3.5 NW 6 9 3 5 1022.9 1022.9 0.0
29/10:00am 15.0 13.9 10.8 76 2.2 N 7 9 4 5 1023.4 1023.4 0.0
29/09:30am 12.2 10.2 10.3 88 1.0 N 11 13 6 7 1023.7 1023.7 0.0
29/09:00am 9.6 7.2 8.7 94 0.4 N 11 13 6 7 1023.8 1023.8 0.0
29/08:42am 8.2 6.0 7.9 98 0.1 N 9 13 5 7 1023.8 1023.8 0.0
29/08:40am 7.9 5.3 7.6 98 0.1 N 11 13 6 7 1023.8 1023.8 0.0
29/08:30am 7.5 5.1 7.2 98 0.1 N 9 11 5 6 1023.7 1023.7 0.0
29/08:00am 5.6 2.8 5.3 98 0.1 N 9 13 5 7 1023.7 1023.7 0.0
29/07:30am 3.2 0.0 2.9 98 0.1 N 9 11 5 6 1023.7 1023.7 0.0
29/07:00am 2.8 1.2 2.5 98 0.1 CALM 0 0 0 0 1023.6 1023.6 0.0
29/06:30am 2.2 0.5 1.9 98 0.1 CALM 0 0 0 0 1023.3 1023.3 0.0
29/06:00am 3.6 0.1 3.3 98 0.1 N 11 13 6 7 1022.9 1022.9 0.0
29/05:30am 3.4 -0.9 3.1 98 0.1 N 15 17 8 9 1022.4 1022.4 0.0
29/05:00am 4.2 0.0 3.9 98 0.1 N 15 17 8 9 1022.2 1022.2 0.0
29/04:30am 3.7 0.2 3.3 97 0.2 N 11 15 6 8 1022.1 1022.1 0.0
29/04:00am 4.6 1.6 4.3 98 0.1 NNE 9 11 5 6 1022.1 1022.1 0.0
29/03:30am 4.6 1.2 4.2 97 0.2 N 11 13 6 7 1022.2 1022.2 0.0
29/03:14am 4.8 0.7 4.5 98 0.1 N 15 17 8 9 1022.3 1022.3 0.0
29/03:12am 4.8 0.7 4.4 97 0.2 N 15 17 8 9 1022.4 1022.4 0.0
29/03:00am 4.4 1.8 4.0 97 0.2 N 7 13 4 7 1022.4 1022.4 0.0
29/02:52am 4.2 2.8 3.8 97 0.2 CALM 0 7 0 4 1022.4 1022.4 0.0
29/02:39am 3.8 1.5 2.9 94 0.4 N 4 7 2 4 1022.5 1022.5 0.0
29/02:30am 3.7 0.8 2.8 94 0.4 N 7 11 4 6 1022.6 1022.6 0.0
29/02:00am 5.4 1.8 5.0 97 0.2 N 13 15 7 8 1022.6 1022.6 0.0
29/01:30am 5.7 1.8 5.3 97 0.2 N 15 17 8 9 1022.5 1022.5 0.0
29/01:00am 6.5 3.1 5.9 96 0.3 N 13 13 7 7 1022.6 1022.6 0.0
29/12:30am 6.5 3.1 5.9 96 0.3 N 13 15 7 8 1022.6 1022.6 0.0
29/12:00am 6.8 3.4 6.1 95 0.3 NNE 13 15 7 8 1022.7 1022.7 0.0
 
Date/Time
EST
Temp
°C
App
Temp
°C
Dew
Point
°C
Rel
Hum
%
Delta-T
°C
Wind Press
QNH
hPa
Press
MSL
hPa
Rain since
9am
mm
Dir  Spd
km/h
Gust
km/h
Spd
kts
Gust
kts
28/11:30pm 7.1 3.8 6.4 95 0.3 N 13 15 7 8 1022.9 1022.9 0.0
28/11:00pm 7.4 3.7 6.2 92 0.5 N 15 17 8 9 1022.8 1022.8 0.0
28/10:30pm 7.3 4.0 6.4 94 0.4 N 13 13 7 7 1023.0 1023.0 0.0
28/10:00pm 8.1 4.6 7.2 94 0.4 N 15 17 8 9 1023.1 1023.1 0.0
28/09:30pm 8.0 4.8 6.8 92 0.6 N 13 13 7 7 1023.1 1023.1 0.0
28/09:00pm 7.8 5.5 5.9 88 0.9 N 7 9 4 5 1023.2 1023.2 0.0
28/08:30pm 8.7 6.6 6.5 86 1.0 N 7 9 4 5 1023.2 1023.2 0.0
28/08:00pm 9.7 7.2 6.6 81 1.4 N 9 11 5 6 1023.0 1023.0 0.0
28/07:30pm 11.8 8.8 7.9 77 1.9 NNW 13 15 7 8 1022.9 1022.9 0.0
28/07:00pm 11.7 9.1 7.6 76 2.0 N 11 13 6 7 1022.7 1022.7 0.0
28/06:30pm 12.2 10.2 8.7 79 1.7 N 9 13 5 7 1022.5 1022.5 0.0
28/06:00pm 10.6 7.9 5.6 71 2.3 N 9 13 5 7 1022.4 1022.4 0.0
28/05:30pm 12.6 11.2 5.5 62 3.3 WSW 2 7 1 4 1022.2 1022.2 0.0
28/05:00pm 16.1 15.3 6.3 52 4.7 CALM 0 0 0 0 1022.0 1022.0 0.0
28/04:30pm 19.9 19.0 7.6 45 6.3 WSW 2 7 1 4 1022.0 1022.0 0.0
28/04:00pm 20.7 19.6 5.1 36 7.6 CALM 0 0 0 0 1021.9 1021.9 0.0
28/03:30pm 20.7 18.4 4.7 35 7.8 NW 6 11 3 6 1021.9 1021.9 0.0
28/03:00pm 20.8 18.3 4.0 33 8.0 WNW 6 11 3 6 1022.0 1022.0 0.0
28/02:30pm 20.3 17.4 4.4 35 7.7 S 9 13 5 7 1022.0 1022.0 0.0
28/02:00pm 20.6 18.1 4.6 35 7.7 WSW 7 13 4 7 1022.1 1022.1 0.0
28/01:30pm 20.0 17.1 4.9 37 7.3 SSE 9 17 5 9 1022.4 1022.4 0.0
28/01:00pm 19.6 16.7 4.9 38 7.1 SW 9 13 5 7 1022.6 1022.6 0.0
28/12:30pm 19.5 16.6 4.8 38 7.1 W 9 13 5 7 1023.2 1023.2 0.0
28/12:00pm 18.9 16.2 5.4 41 6.6 WNW 9 13 5 7 1023.6 1023.6 0.0
28/11:30am 18.2 15.3 4.4 40 6.6 WSW 9 15 5 8 1024.1 1024.1 0.0
28/11:00am 17.5 13.7 4.1 41 6.3 WSW 13 17 7 9 1024.5 1024.5 0.0
28/10:30am 16.9 12.7 3.9 42 6.1 WSW 15 20 8 11 1024.9 1024.9 0.0
28/10:00am 16.0 12.2 4.1 45 5.5 WSW 13 22 7 12 1024.9 1024.9 0.0
28/09:30am 14.5 13.7 6.6 59 3.8 CALM 0 0 0 0 1025.0 1025.0 0.0
28/09:00am 11.9 9.5 7.0 72 2.3 N 9 13 5 7 1024.8 1024.8 0.0
28/08:30am 9.7 6.7 6.2 79 1.6 N 11 17 6 9 1024.9 1024.9 0.0
28/08:00am 7.8 4.2 5.1 83 1.2 N 13 17 7 9 1024.6 1024.6 0.0
28/07:30am 6.0 3.6 5.1 94 0.4 N 7 11 4 6 1024.1 1024.1 0.0
28/07:00am 2.4 0.6 1.2 92 0.5 CALM 0 0 0 0 1024.0 1024.0 0.0
28/06:30am 3.3 1.7 2.3 93 0.4 CALM 0 4 0 2 1023.3 1023.3 0.0
28/06:00am 4.3 1.4 2.8 90 0.6 N 7 9 4 5 1023.0 1023.0 0.0
28/05:30am 4.2 0.6 3.2 93 0.4 N 11 15 6 8 1022.4 1022.4 0.0
28/05:00am 2.7 0.4 0.4 85 0.9 N 2 9 1 5 1022.1 1022.1 0.0
28/04:30am 4.9 1.8 3.7 92 0.5 NNE 9 11 5 6 1021.8 1021.8 0.0
28/04:00am 4.7 0.8 3.4 91 0.5 N 13 15 7 8 1021.5 1021.5 0.0
28/03:30am 6.0 2.2 3.8 86 0.9 NNE 13 15 7 8 1021.4 1021.4 0.0
28/03:00am 6.3 2.5 4.0 85 1.0 NNE 13 15 7 8 1021.5 1021.5 0.0
28/02:30am 6.3 2.4 3.6 83 1.1 NNE 13 17 7 9 1021.5 1021.5 0.0
28/02:00am 7.4 4.3 3.6 77 1.6 NNE 9 11 5 6 1021.5 1021.5 0.0
28/01:30am 8.0 4.2 3.7 74 1.8 N 13 17 7 9 1021.6 1021.6 0.0
28/01:00am 10.3 7.3 4.0 65 2.8 NE 9 15 5 8 1021.6 1021.6 0.0
28/12:30am 11.7 7.7 3.0 55 3.8 WSW 13 17 7 9 1021.4 1021.4 0.0
28/12:00am 11.8 8.3 3.6 57 3.6 WSW 11 19 6 10 1021.2 1021.2 0.0
 
Date/Time
EST
Temp
°C
App
Temp
°C
Dew
Point
°C
Rel
Hum
%
Delta-T
°C
Wind Press
QNH
hPa
Press
MSL
hPa
Rain since
9am
mm
Dir  Spd
km/h
Gust
km/h
Spd
kts
Gust
kts
27/11:30pm 11.0 8.2 3.3 59 3.4 WSW 7 15 4 8 1021.0 1021.0 0.0
27/11:00pm 11.8 7.8 3.1 55 3.8 WSW 13 17 7 9 1020.7 1020.7 0.0

Other Formats:

Comma delimited format used in spreadsheet applications
http://www.bom.gov.au/fwo/IDN60801/IDN60801.94572.axf

JavaScript Object Notation format (JSON) in row-major order
http://www.bom.gov.au/fwo/IDN60801/IDN60801.94572.json